FIN21 EFKU-ENAT
Flight info
| Callsign | FIN21 |
|---|---|
| Flight time | N/A |
| Altitude | 38000 |
| Route | UGLUM T95 EVSET DCT RIBVU Y75 GITEV DCT EVOLA DCT DIXUR DCT BIGSI DCT DONEX DCT ORVAK |
| Aircraft | A20N/M-SDE2E3FGHIRWXY/LB1 |
Departure
| Time | 2026-04-25 11:25 |
|---|---|
| Airport | Kuopio Airport (EFKU) |
Arrival
| Time | N/A |
|---|---|
| Airport | Alta Airport (ENAT) |
| Time | Latitude | Longitude | Altitude | Speed | Heading |
|---|---|---|---|---|---|
| 2026-04-25 11:03 | 63.00870 | 27.79041 | 328 ft | 0 kts | 295° |
| 2026-04-25 11:19 | 63.00867 | 27.79055 | 323 ft | 2 kts | 293° |
| 2026-04-25 11:19 | 63.00860 | 27.79088 | 322 ft | 2 kts | 291° |
| 2026-04-25 11:19 | 63.00854 | 27.79122 | 324 ft | 2 kts | 288° |
| 2026-04-25 11:19 | 63.00849 | 27.79157 | 323 ft | 2 kts | 284° |
| 2026-04-25 11:20 | 63.00846 | 27.79192 | 326 ft | 2 kts | 291° |
| 2026-04-25 11:20 | 63.00842 | 27.79208 | 327 ft | 0 kts | 335° |
| 2026-04-25 11:22 | 63.00877 | 27.79173 | 325 ft | 11 kts | 336° |
| 2026-04-25 11:22 | 63.00932 | 27.79122 | 327 ft | 14 kts | 338° |
| 2026-04-25 11:22 | 63.01074 | 27.79018 | 327 ft | 18 kts | 346° |
| 2026-04-25 11:22 | 63.01198 | 27.78912 | 323 ft | 20 kts | 336° |
| 2026-04-25 11:23 | 63.01327 | 27.78788 | 319 ft | 22 kts | 338° |
| 2026-04-25 11:23 | 63.01472 | 27.78657 | 311 ft | 23 kts | 334° |
| 2026-04-25 11:23 | 63.01623 | 27.78510 | 308 ft | 23 kts | 336° |
| 2026-04-25 11:23 | 63.01756 | 27.78474 | 313 ft | 17 kts | 34° |
| 2026-04-25 11:24 | 63.01790 | 27.78662 | 315 ft | 12 kts | 101° |
| 2026-04-25 11:24 | 63.01757 | 27.78804 | 316 ft | 11 kts | 137° |
| 2026-04-25 11:24 | 63.01696 | 27.78869 | 318 ft | 0 kts | 158° |
| 2026-04-25 11:25 | 63.01620 | 27.78940 | 321 ft | 45 kts | 156° |
| 2026-04-25 11:25 | 63.01076 | 27.79441 | 332 ft | 121 kts | 157° |
| 2026-04-25 11:25 | 63.00148 | 27.80260 | 651 ft | 151 kts | 152° |
| 2026-04-25 11:25 | 62.99144 | 27.81178 | 1181 ft | 167 kts | 153° |
| 2026-04-25 11:26 | 62.98036 | 27.82232 | 1984 ft | 175 kts | 152° |
| 2026-04-25 11:26 | 62.96880 | 27.83318 | 2696 ft | 189 kts | 153° |
| 2026-04-25 11:26 | 62.95610 | 27.84516 | 3187 ft | 208 kts | 154° |
| 2026-04-25 11:26 | 62.94203 | 27.85833 | 3650 ft | 231 kts | 154° |
| 2026-04-25 11:27 | 62.92848 | 27.87916 | 3973 ft | 252 kts | 128° |
| 2026-04-25 11:27 | 62.92068 | 27.91292 | 4002 ft | 246 kts | 97° |
| 2026-04-25 11:27 | 62.92170 | 27.94909 | 4006 ft | 236 kts | 66° |
| 2026-04-25 11:27 | 62.92641 | 27.97113 | 4009 ft | 242 kts | 57° |
| 2026-04-25 11:28 | 62.94083 | 28.01036 | 4007 ft | 252 kts | 33° |
| 2026-04-25 11:28 | 62.95673 | 28.02555 | 4136 ft | 251 kts | 9° |
| 2026-04-25 11:28 | 62.97407 | 28.02450 | 4795 ft | 252 kts | 345° |
| 2026-04-25 11:28 | 62.99027 | 28.01047 | 5918 ft | 250 kts | 337° |
| 2026-04-25 11:29 | 63.00636 | 27.99570 | 6908 ft | 252 kts | 337° |
| 2026-04-25 11:29 | 63.02265 | 27.98090 | 7875 ft | 255 kts | 337° |
| 2026-04-25 11:29 | 63.03920 | 27.96584 | 8842 ft | 258 kts | 337° |
| 2026-04-25 11:29 | 63.05589 | 27.95061 | 9735 ft | 264 kts | 337° |
| 2026-04-25 11:30 | 63.07329 | 27.93468 | 10120 ft | 285 kts | 337° |
| 2026-04-25 11:30 | 63.09233 | 27.91717 | 10454 ft | 307 kts | 337° |
| 2026-04-25 11:30 | 63.11227 | 27.89879 | 11172 ft | 313 kts | 336° |
| 2026-04-25 11:30 | 63.13246 | 27.88016 | 12047 ft | 317 kts | 336° |
| 2026-04-25 11:31 | 63.15298 | 27.86118 | 12877 ft | 321 kts | 336° |
| 2026-04-25 11:31 | 63.17373 | 27.84196 | 13677 ft | 325 kts | 336° |
| 2026-04-25 11:31 | 63.19457 | 27.82266 | 14507 ft | 325 kts | 336° |
| 2026-04-25 11:31 | 63.21560 | 27.80340 | 15319 ft | 328 kts | 336° |
| 2026-04-25 11:32 | 63.23708 | 27.78561 | 16098 ft | 331 kts | 338° |
| 2026-04-25 11:32 | 63.25891 | 27.76833 | 16895 ft | 334 kts | 338° |
| 2026-04-25 11:32 | 63.28033 | 27.75138 | 17650 ft | 336 kts | 338° |
| 2026-04-25 11:32 | 63.30239 | 27.73372 | 18313 ft | 339 kts | 337° |
| 2026-04-25 11:33 | 63.32463 | 27.71568 | 18928 ft | 341 kts | 337° |
| 2026-04-25 11:33 | 63.34701 | 27.69738 | 19588 ft | 343 kts | 336° |
| 2026-04-25 11:33 | 63.36950 | 27.67890 | 20233 ft | 345 kts | 336° |